Time;durP1;ratioP1;P1;durP2;ratioP2;P2;SDS_P1;SDS_P2;PMS_P1;PMS_P2;Temp;Humidity;BMP_temperature;BMP_pressure;BME280_temperature;BME280_humidity;BME280_pressure;Samples;Min_cycle;Max_cycle;Signal;HPM_P1;HPM_P2
2024/02/25 00:01:15;;;;;;;9.40;3.38;;;;;;;10.51;72.44;100009.28;5030023;28;20033;-45
2024/02/25 00:03:41;;;;;;;8.63;4.35;;;;;;;10.47;72.66;100007.56;5048935;28;20037;-46
2024/02/25 00:06:06;;;;;;;6.95;3.58;;;;;;;10.56;72.55;100001.47;5030306;28;20033;-46
2024/02/25 00:08:31;;;;;;;8.65;3.63;;;;;;;10.61;72.15;100004.09;5030911;28;20106;-45
2024/02/25 00:10:58;;;;;;;6.93;3.80;;;;;;;10.43;72.58;100004.97;5048485;28;20373;-48
2024/02/25 00:13:24;;;;;;;6.78;3.47;;;;;;;10.55;72.38;99999.75;5048503;28;20036;-49
2024/02/25 00:15:50;;;;;;;7.55;3.47;;;;;;;10.45;72.57;99991.06;5031033;28;20141;-50
2024/02/25 00:18:15;;;;;;;7.30;3.78;;;;;;;10.45;72.65;99998.88;5048555;28;20040;-46
2024/02/25 00:20:40;;;;;;;8.50;3.80;;;;;;;10.40;72.61;100000.63;5048339;28;20021;-49
2024/02/25 00:23:05;;;;;;;7.60;3.85;;;;;;;10.46;72.73;99997.13;5030662;28;20025;-46
2024/02/25 00:25:31;;;;;;;6.65;3.80;;;;;;;10.49;72.47;100004.97;5031268;28;20025;-45
2024/02/25 00:27:56;;;;;;;6.95;3.90;;;;;;;10.49;72.71;99992.78;5048976;28;20056;-46
2024/02/25 00:30:22;;;;;;;6.75;4.10;;;;;;;10.47;72.70;99991.94;5048366;28;20036;-45
2024/02/25 00:32:47;;;;;;;10.18;4.78;;;;;;;10.54;72.82;99996.28;5047029;28;20029;-48
2024/02/25 00:35:12;;;;;;;9.70;4.80;;;;;;;10.42;72.89;100000.63;5048001;28;20028;-49
2024/02/25 00:37:38;;;;;;;10.23;4.55;;;;;;;10.53;72.54;99994.53;5051514;28;20029;-43
2024/02/25 00:40:05;;;;;;;8.65;4.57;;;;;;;10.60;72.61;99994.53;5033966;28;20040;-45
2024/02/25 00:42:30;;;;;;;8.18;4.80;;;;;;;10.46;72.94;100000.63;5052811;28;20479;-45
2024/02/25 00:44:55;;;;;;;8.23;4.82;;;;;;;10.53;72.47;100002.34;5034719;28;20036;-49
2024/02/25 00:47:21;;;;;;;8.60;5.63;;;;;;;10.47;72.95;100004.09;5051806;28;20029;-47
2024/02/25 00:49:48;;;;;;;9.77;5.72;;;;;;;10.39;73.29;100001.47;5034820;28;20067;-48
2024/02/25 00:52:13;;;;;;;9.88;6.10;;;;;;;10.24;73.87;100005.81;5051465;28;20025;-44
2024/02/25 00:54:43;;;;;;;13.13;6.60;;;;;;;10.22;74.95;100004.94;5034566;28;20021;-49
2024/02/25 00:57:08;;;;;;;10.30;6.40;;;;;;;10.42;73.91;100001.50;5052062;28;20055;-46
2024/02/25 00:59:33;;;;;;;10.07;6.50;;;;;;;10.08;74.92;100003.16;5052121;28;20072;-47
2024/02/25 01:01:59;;;;;;;10.35;6.03;;;;;;;10.37;74.33;100007.56;5051869;28;20032;-48
2024/02/25 01:04:24;;;;;;;10.57;6.43;;;;;;;10.44;73.71;100006.69;5051782;28;20083;-47
2024/02/25 01:06:51;;;;;;;9.50;6.65;;;;;;;10.54;73.24;100004.09;5052230;28;20029;-45
2024/02/25 01:09:17;;;;;;;9.73;6.30;;;;;;;10.65;72.71;100004.06;5051490;28;20060;-50
2024/02/25 01:11:42;;;;;;;10.60;6.60;;;;;;;10.64;72.80;100009.28;5051863;28;20029;-45
2024/02/25 01:14:08;;;;;;;10.70;6.72;;;;;;;10.60;73.01;100008.44;5051390;28;20383;-48
2024/02/25 01:16:33;;;;;;;9.82;6.38;;;;;;;10.70;73.00;100002.34;5051958;28;20382;-52
2024/02/25 01:18:58;;;;;;;10.30;6.68;;;;;;;10.63;72.92;100003.19;5051989;28;20368;-46
2024/02/25 01:21:24;;;;;;;10.68;6.35;;;;;;;10.35;74.06;99997.16;5050319;28;20037;-50
2024/02/25 01:23:49;;;;;;;9.90;6.35;;;;;;;10.38;74.02;100006.69;5051726;28;20082;-46
2024/02/25 01:26:14;;;;;;;9.98;6.43;;;;;;;10.51;73.22;99998.00;5051331;28;20594;-49
2024/02/25 01:28:40;;;;;;;8.35;6.00;;;;;;;10.32;74.42;100006.69;5051545;28;20040;-46
2024/02/25 01:31:05;;;;;;;9.40;5.78;;;;;;;10.37;74.40;100004.97;5015639;28;20045;-48
2024/02/25 01:33:31;;;;;;;11.05;6.35;;;;;;;10.48;74.02;100001.50;5033516;28;20051;-50
2024/02/25 01:35:56;;;;;;;9.95;5.80;;;;;;;10.55;73.67;99994.53;5033593;28;20116;-46
2024/02/25 01:38:21;;;;;;;8.52;5.70;;;;;;;10.38;74.42;100001.47;5033080;28;20045;-46
2024/02/25 01:40:47;;;;;;;9.48;6.18;;;;;;;10.37;74.35;99999.75;5051053;28;20295;-48
2024/02/25 01:43:17;;;;;;;8.95;5.50;;;;;;;10.60;73.35;99990.19;5050708;28;20051;-50
2024/02/25 01:45:43;;;;;;;9.13;6.03;;;;;;;10.58;73.62;99987.56;5051025;28;20037;-47
2024/02/25 01:48:09;;;;;;;9.60;6.22;;;;;;;10.47;74.36;99993.66;5049862;28;20041;-47
2024/02/25 01:50:36;;;;;;;10.10;6.15;;;;;;;10.50;74.07;99985.81;5050562;28;20120;-46
2024/02/25 01:53:02;;;;;;;10.63;6.40;;;;;;;10.52;74.17;99990.19;5032771;28;20491;-47
2024/02/25 01:55:31;;;;;;;13.00;7.20;;;;;;;10.34;74.67;99989.31;5033213;28;20025;-47
2024/02/25 01:57:58;;;;;;;12.95;6.93;;;;;;;10.36;75.30;99988.47;5050992;28;20209;-46
2024/02/25 02:00:25;;;;;;;10.48;6.90;;;;;;;10.44;74.63;99997.13;5032306;28;20059;-48
2024/02/25 02:02:50;;;;;;;12.52;7.65;;;;;;;10.33;74.65;99993.66;5033154;28;20126;-49
2024/02/25 02:05:16;;;;;;;11.52;7.30;;;;;;;10.42;74.38;99993.69;5032322;28;20029;-50
2024/02/25 02:07:41;;;;;;;11.27;7.07;;;;;;;10.27;75.59;100004.06;5050650;28;20094;-46
2024/02/25 02:10:08;;;;;;;12.63;7.35;;;;;;;10.40;75.25;99992.78;5032057;28;20032;-47
2024/02/25 02:12:44;;;;;;;11.05;7.28;;;;;;;10.41;74.71;99998.88;5032868;28;20032;-49
2024/02/25 02:15:10;;;;;;;11.25;7.13;;;;;;;10.49;74.36;99995.38;5049045;28;20372;-46
2024/02/25 02:17:40;;;;;;;10.93;7.38;;;;;;;10.15;75.18;99996.22;5050929;28;20422;-45
2024/02/25 02:20:07;;;;;;;12.80;7.20;;;;;;;10.32;75.54;99996.25;5049851;28;20028;-45
2024/02/25 02:22:32;;;;;;;11.75;7.30;;;;;;;10.38;75.53;99997.13;5032966;28;20082;-46
2024/02/25 02:24:58;;;;;;;10.98;7.30;;;;;;;10.41;74.96;99998.88;5050436;28;20379;-46
2024/02/25 02:27:23;;;;;;;12.52;7.50;;;;;;;10.42;75.09;99995.41;5031819;28;20475;-52
2024/02/25 02:29:51;;;;;;;11.77;7.80;;;;;;;10.43;74.82;99998.00;5032244;28;20031;-48
2024/02/25 02:32:16;;;;;;;11.18;7.60;;;;;;;10.42;75.09;100000.63;5049188;28;20094;-47
2024/02/25 02:34:41;;;;;;;13.07;7.80;;;;;;;10.49;74.93;99991.94;5050111;28;20036;-45
2024/02/25 02:37:07;;;;;;;12.02;8.15;;;;;;;10.19;75.59;99997.97;5049784;28;20086;-46
2024/02/25 02:39:32;;;;;;;12.10;7.68;;;;;;;10.37;75.49;99994.53;5050363;28;20025;-47
2024/02/25 02:41:59;;;;;;;14.15;7.70;;;;;;;10.18;75.63;99993.66;5050001;28;20027;-46
2024/02/25 02:44:24;;;;;;;11.13;7.55;;;;;;;10.36;75.54;99998.88;5032072;28;20041;-47
2024/02/25 02:46:49;;;;;;;12.75;7.70;;;;;;;10.33;75.78;99996.25;5050180;28;20047;-48
2024/02/25 02:49:15;;;;;;;13.20;8.20;;;;;;;10.22;75.74;99995.41;5049293;28;20098;-50
2024/02/25 02:51:40;;;;;;;13.55;8.48;;;;;;;10.36;75.81;99992.81;5015425;28;20106;-48
2024/02/25 02:54:06;;;;;;;13.70;8.32;;;;;;;10.32;76.03;99991.03;5049677;28;20406;-46
2024/02/25 02:56:34;;;;;;;12.73;8.15;;;;;;;10.40;75.86;99982.38;5050178;28;20333;-49
2024/02/25 02:58:59;;;;;;;13.75;8.25;;;;;;;10.50;74.99;99993.66;5048042;28;20491;-51
2024/02/25 03:01:25;;;;;;;15.32;8.93;;;;;;;10.37;75.19;99990.19;5049160;28;20098;-46
2024/02/25 03:03:50;;;;;;;14.23;8.90;;;;;;;10.38;75.34;99994.53;5031739;28;20028;-47
2024/02/25 03:06:18;;;;;;;13.52;8.60;;;;;;;10.38;75.73;99988.44;5031336;28;20479;-49
2024/02/25 03:08:44;;;;;;;14.95;9.65;;;;;;;10.37;75.57;99982.34;5062340;23;20120;-46
2024/02/25 03:11:09;;;;;;;13.98;9.32;;;;;;;10.32;75.61;99989.31;5070962;28;20082;-45
2024/02/25 03:13:35;;;;;;;16.10;9.50;;;;;;;10.35;75.22;99983.25;5072871;28;20059;-46
2024/02/25 03:16:01;;;;;;;15.30;9.63;;;;;;;10.34;75.42;99984.97;5074477;28;20085;-48
2024/02/25 03:18:26;;;;;;;14.20;9.52;;;;;;;10.46;75.35;99982.38;5067486;28;20040;-45
2024/02/25 03:20:52;;;;;;;15.32;10.07;;;;;;;10.44;75.41;99978.00;5015313;28;20052;-47
2024/02/25 03:23:17;;;;;;;16.95;10.50;;;;;;;10.42;75.05;99979.78;5031391;28;20055;-45
2024/02/25 03:25:43;;;;;;;18.27;10.50;;;;;;;10.45;74.92;99979.75;5049702;28;20040;-47
2024/02/25 03:28:08;;;;;;;17.42;10.57;;;;;;;10.44;75.56;99984.09;5049079;28;20033;-45
2024/02/25 03:30:34;;;;;;;17.25;10.88;;;;;;;10.53;75.54;99980.63;5047971;28;20115;-45
2024/02/25 03:33:01;;;;;;;17.98;11.02;;;;;;;10.36;75.90;99982.38;5049123;28;20051;-48
2024/02/25 03:35:28;;;;;;;17.08;11.23;;;;;;;10.45;75.22;99977.16;5050152;28;20023;-48
2024/02/25 03:37:55;;;;;;;18.00;11.25;;;;;;;10.39;75.46;99979.75;5049802;28;20381;-49
2024/02/25 03:40:21;;;;;;;20.58;12.00;;;;;;;10.38;75.37;99978.00;5048170;28;20036;-47
2024/02/25 03:42:48;;;;;;;19.83;11.50;;;;;;;10.46;75.40;99977.16;5031880;28;20584;-47
2024/02/25 03:45:14;;;;;;;17.75;11.55;;;;;;;10.23;75.88;99984.13;5048878;28;20115;-47
2024/02/25 03:47:39;;;;;;;20.00;12.27;;;;;;;10.51;75.55;99978.03;5049785;28;20115;-45
2024/02/25 03:50:06;;;;;;;21.55;12.95;;;;;;;10.45;75.18;99982.38;5048345;28;20033;-49
2024/02/25 03:52:31;;;;;;;23.25;13.07;;;;;;;10.46;75.19;99984.97;5049374;28;20037;-44
2024/02/25 03:54:56;;;;;;;22.10;12.82;;;;;;;10.36;75.48;99987.59;5031631;28;20044;-48
2024/02/25 03:57:21;;;;;;;22.30;12.93;;;;;;;10.42;75.48;99990.19;5014645;28;20029;-47
2024/02/25 03:59:47;;;;;;;21.10;12.27;;;;;;;10.51;74.91;99991.06;5031293;28;20029;-46
2024/02/25 04:02:12;;;;;;;22.95;12.30;;;;;;;10.48;74.85;99979.78;5048531;28;20174;-47
2024/02/25 04:04:39;;;;;;;21.17;12.75;;;;;;;10.33;75.66;99988.44;5031740;28;20025;-48
2024/02/25 04:07:05;;;;;;;21.25;12.38;;;;;;;10.30;75.48;99990.19;5030924;28;20025;-46
2024/02/25 04:09:31;;;;;;;22.75;13.05;;;;;;;10.27;75.32;99991.06;5048983;28;20056;-46
2024/02/25 04:11:56;;;;;;;21.45;12.98;;;;;;;10.35;75.55;99993.66;5032836;28;20330;-45
2024/02/25 04:14:22;;;;;;;23.38;13.10;;;;;;;10.28;75.39;99997.13;5034727;28;20506;-49
2024/02/25 04:16:47;;;;;;;23.70;13.50;;;;;;;10.42;75.13;99995.41;5054399;28;20162;-44
2024/02/25 04:19:13;;;;;;;24.10;13.68;;;;;;;10.31;75.65;99997.13;5036092;28;20036;-46
2024/02/25 04:21:39;;;;;;;24.00;13.80;;;;;;;10.37;76.23;99999.75;5055347;28;20037;-46
2024/02/25 04:24:05;;;;;;;22.52;13.65;;;;;;;10.37;75.95;100000.59;5057497;28;20029;-46
2024/02/25 04:26:30;;;;;;;24.77;13.70;;;;;;;10.42;76.09;100003.22;5056467;28;20076;-45
2024/02/25 04:28:55;;;;;;;22.65;13.57;;;;;;;10.42;75.82;99998.88;5036035;28;20053;-48
2024/02/25 04:31:21;;;;;;;25.05;13.90;;;;;;;10.51;75.46;99993.66;5033974;28;20064;-47
2024/02/25 04:33:46;;;;;;;25.55;14.18;;;;;;;10.55;75.32;99990.16;5052791;28;20296;-47
2024/02/25 04:36:20;;;;;;;24.95;14.32;;;;;;;10.58;75.39;99991.91;5034656;28;20106;-46
2024/02/25 04:38:47;;;;;;;23.98;13.75;;;;;;;10.52;75.58;99990.19;5053092;28;20490;-47
2024/02/25 04:41:12;;;;;;;22.48;13.90;;;;;;;10.58;75.19;99999.75;5051739;28;20032;-46
2024/02/25 04:43:37;;;;;;;24.90;14.35;;;;;;;10.60;74.90;99999.75;5052887;28;20028;-48
2024/02/25 04:46:03;;;;;;;26.40;14.32;;;;;;;10.47;75.61;99999.75;5052193;28;20371;-46
2024/02/25 04:48:28;;;;;;;27.58;15.05;;;;;;;10.63;75.58;99999.72;5035331;28;20039;-47
2024/02/25 04:50:55;;;;;;;25.00;14.85;;;;;;;10.63;75.74;99997.13;5034362;28;20546;-45
2024/02/25 04:53:21;;;;;;;28.30;14.50;;;;;;;10.73;75.17;99996.25;5052183;28;20530;-46
2024/02/25 04:55:47;;;;;;;29.42;14.70;;;;;;;10.67;75.50;100002.34;5052161;28;20031;-44
2024/02/25 04:58:13;;;;;;;30.70;15.23;;;;;;;10.66;75.42;99998.00;5033772;28;20029;-46
2024/02/25 05:00:38;;;;;;;25.65;14.73;;;;;;;10.75;75.37;99994.50;5051865;28;20036;-50
2024/02/25 05:03:05;;;;;;;28.48;15.15;;;;;;;10.83;74.99;99995.38;5051598;28;20033;-45
2024/02/25 05:05:31;;;;;;;25.60;14.73;;;;;;;10.59;75.09;99998.88;5034357;28;20041;-47
2024/02/25 05:07:56;;;;;;;28.15;15.63;;;;;;;10.69;75.62;99999.72;5033917;28;20033;-46
2024/02/25 05:10:22;;;;;;;26.90;14.93;;;;;;;10.71;75.77;99998.84;5051201;28;20032;-48
2024/02/25 05:12:48;;;;;;;25.13;14.48;;;;;;;10.70;75.36;100007.53;5034321;28;20032;-46
2024/02/25 05:15:14;;;;;;;24.63;14.18;;;;;;;10.62;75.73;99997.97;5017473;28;20029;-47
2024/02/25 05:17:39;;;;;;;26.70;15.43;;;;;;;10.73;75.21;100002.34;5034108;28;20033;-46
2024/02/25 05:20:06;;;;;;;24.73;15.07;;;;;;;10.78;75.28;100010.16;5016435;28;20124;-50
2024/02/25 05:22:32;;;;;;;25.65;14.43;;;;;;;10.82;75.05;100002.31;5051056;28;20055;-46
2024/02/25 05:24:57;;;;;;;25.98;14.70;;;;;;;10.67;74.94;100004.09;5017264;28;20060;-45
2024/02/25 05:27:28;;;;;;;24.80;15.05;;;;;;;10.76;75.00;100009.28;5051687;28;20124;-45
2024/02/25 05:29:54;;;;;;;26.45;14.73;;;;;;;10.86;74.92;100005.78;5051616;28;20039;-45
2024/02/25 05:32:20;;;;;;;24.48;14.85;;;;;;;10.88;75.09;100004.03;5016719;28;20128;-46
2024/02/25 05:34:45;;;;;;;25.92;14.43;;;;;;;10.77;75.06;100014.50;5051782;28;20029;-46
2024/02/25 05:37:11;;;;;;;22.83;14.27;;;;;;;10.72;75.50;100015.38;5033393;28;20360;-45
2024/02/25 05:39:37;;;;;;;23.45;13.93;;;;;;;10.79;75.37;100015.38;5033673;28;20029;-47
2024/02/25 05:42:04;;;;;;;24.73;14.38;;;;;;;10.84;75.06;100016.22;5033160;28;20025;-46
2024/02/25 05:44:29;;;;;;;24.70;14.15;;;;;;;10.83;74.82;100017.09;5033715;28;20024;-46
2024/02/25 05:46:54;;;;;;;26.58;14.18;;;;;;;10.92;75.08;100018.78;5034161;28;20372;-46
2024/02/25 05:49:20;;;;;;;26.45;15.10;;;;;;;10.94;75.09;100017.06;5051014;28;20029;-44
2024/02/25 05:51:45;;;;;;;26.65;15.30;;;;;;;10.94;75.07;100024.91;5033171;28;20032;-46
2024/02/25 05:54:11;;;;;;;24.20;14.70;;;;;;;10.98;74.69;100027.47;5033255;28;20476;-46
2024/02/25 05:56:36;;;;;;;25.98;14.50;;;;;;;10.99;74.56;100029.22;5034098;28;20353;-46
2024/02/25 05:59:01;;;;;;;25.17;14.20;;;;;;;11.03;74.35;100030.09;5051114;28;20116;-46
2024/02/25 06:01:31;;;;;;;27.92;14.68;;;;;;;10.77;74.72;100027.53;5050624;28;20028;-48
2024/02/25 06:03:56;;;;;;;23.98;14.00;;;;;;;10.90;74.82;100034.47;5034557;28;20017;-49
2024/02/25 06:06:22;;;;;;;28.70;14.82;;;;;;;10.91;74.69;100033.59;5051089;28;20040;-46
2024/02/25 06:08:47;;;;;;;24.80;13.68;;;;;;;10.58;74.27;100039.69;5050530;28;20040;-47
2024/02/25 06:11:12;;;;;;;25.92;14.27;;;;;;;10.86;74.75;100039.66;5050989;28;20036;-45
2024/02/25 06:13:38;;;;;;;24.90;14.10;;;;;;;10.88;74.58;100033.59;5051774;28;20056;-46
2024/02/25 06:16:03;;;;;;;26.95;13.93;;;;;;;10.73;74.49;100046.66;5051778;28;20029;-48
2024/02/25 06:18:29;;;;;;;24.13;13.82;;;;;;;10.82;74.81;100035.34;5052324;28;20040;-44
2024/02/25 06:20:54;;;;;;;24.02;13.88;;;;;;;10.68;75.47;100040.56;5033039;28;20033;-46
2024/02/25 06:23:19;;;;;;;25.30;13.95;;;;;;;10.80;74.70;100034.47;5050640;28;20045;-46
2024/02/25 06:25:45;;;;;;;24.08;13.85;;;;;;;10.83;74.01;100037.09;5050845;28;20079;-44
2024/02/25 06:28:10;;;;;;;23.65;13.70;;;;;;;10.78;73.83;100039.69;5050711;28;20029;-46
2024/02/25 06:30:36;;;;;;;24.90;13.52;;;;;;;10.70;74.12;100041.44;5032776;28;20037;-44
2024/02/25 06:33:01;;;;;;;22.33;13.07;;;;;;;10.75;73.79;100036.22;5050049;28;20045;-45
2024/02/25 06:35:26;;;;;;;26.52;13.23;;;;;;;10.65;74.08;100047.53;5050145;28;20017;-46
2024/02/25 06:37:52;;;;;;;28.45;14.48;;;;;;;10.75;74.12;100049.25;5050735;28;20402;-45
2024/02/25 06:40:18;;;;;;;23.45;13.48;;;;;;;10.75;74.00;100047.50;5049375;28;20095;-44
2024/02/25 06:42:44;;;;;;;24.92;14.65;;;;;;;10.67;74.31;100048.41;5050555;28;20025;-49
2024/02/25 06:45:09;;;;;;;25.77;13.82;;;;;;;10.77;73.94;100045.78;5032053;28;20047;-46
2024/02/25 06:47:36;;;;;;;24.67;13.60;;;;;;;10.71;73.99;100044.91;5050560;28;20025;-49
2024/02/25 06:50:01;;;;;;;24.42;14.57;;;;;;;10.66;73.74;100050.13;5031835;28;20033;-44
2024/02/25 06:52:26;;;;;;;25.60;15.13;;;;;;;10.71;74.00;100056.22;5031941;28;20124;-46
2024/02/25 06:54:52;;;;;;;27.40;15.77;;;;;;;10.58;74.23;100059.69;5050011;28;20033;-47
2024/02/25 06:57:18;;;;;;;27.33;15.35;;;;;;;10.75;74.11;100062.28;5049599;28;20091;-47
2024/02/25 06:59:43;;;;;;;28.52;15.23;;;;;;;10.80;73.44;100065.75;5050135;28;20033;-46
2024/02/25 07:02:09;;;;;;;32.53;15.65;;;;;;;10.72;73.45;100070.13;5049423;28;20039;-45
2024/02/25 07:04:35;;;;;;;28.45;15.88;;;;;;;10.67;73.97;100070.13;5049963;28;20364;-47
2024/02/25 07:07:00;;;;;;;27.40;15.32;;;;;;;10.79;74.29;100072.72;5031527;28;20037;-48
2024/02/25 07:09:26;;;;;;;27.95;15.57;;;;;;;10.79;73.94;100077.06;5050245;28;20083;-45
2024/02/25 07:11:51;;;;;;;25.63;15.30;;;;;;;10.84;74.04;100075.31;5034580;28;20025;-45
2024/02/25 07:14:17;;;;;;;28.55;15.95;;;;;;;10.74;73.93;100074.44;5034274;28;20048;-44
2024/02/25 07:16:43;;;;;;;27.13;14.77;;;;;;;10.67;74.36;100080.56;5053568;28;20041;-48
2024/02/25 07:19:09;;;;;;;26.05;15.20;;;;;;;10.85;73.87;100080.56;5050071;28;20095;-45
2024/02/25 07:21:34;;;;;;;25.38;15.40;;;;;;;10.86;73.34;100082.25;5032020;28;20032;-47
2024/02/25 07:24:00;;;;;;;28.05;15.95;;;;;;;10.84;73.70;100083.16;5049089;28;20548;-49
2024/02/25 07:26:25;;;;;;;27.73;15.38;;;;;;;10.77;73.65;100097.06;5031983;28;20449;-48
2024/02/25 07:28:51;;;;;;;29.83;15.88;;;;;;;10.78;74.26;100085.75;5049797;28;20479;-47
2024/02/25 07:31:20;;;;;;;27.52;15.45;;;;;;;10.88;74.28;100088.34;5014564;28;20037;-45
2024/02/25 07:33:46;;;;;;;26.75;15.02;;;;;;;11.07;73.84;100091.81;5049979;28;20040;-47
2024/02/25 07:36:13;;;;;;;28.50;15.43;;;;;;;11.08;73.82;100095.31;5048237;28;20033;-45
2024/02/25 07:38:39;;;;;;;26.05;14.90;;;;;;;11.18;73.39;100091.78;5050028;28;20503;-48
2024/02/25 07:41:06;;;;;;;26.88;15.20;;;;;;;10.80;72.99;100094.44;5049332;28;20032;-49
2024/02/25 07:43:36;;;;;;;25.45;14.38;;;;;;;11.10;73.97;100093.56;5049344;28;20048;-50
2024/02/25 07:46:05;;;;;;;24.92;14.90;;;;;;;11.20;73.55;100093.53;5030293;28;20411;-46
2024/02/25 07:48:31;;;;;;;25.52;14.30;;;;;;;11.12;73.08;100095.28;5049428;28;20514;-46
2024/02/25 07:50:56;;;;;;;26.95;15.35;;;;;;;11.09;72.89;100108.34;5048659;28;20029;-46
2024/02/25 07:53:22;;;;;;;28.63;15.02;;;;;;;11.13;73.34;100106.59;5048737;28;20112;-45
2024/02/25 07:55:48;;;;;;;27.35;14.68;;;;;;;11.22;73.26;100112.66;5049516;28;20033;-46
2024/02/25 07:58:13;;;;;;;27.33;15.82;;;;;;;11.05;73.43;100109.19;5031247;28;20033;-46
2024/02/25 08:00:38;;;;;;;27.33;14.93;;;;;;;11.14;73.10;100106.59;5031043;28;20086;-45
2024/02/25 08:03:04;;;;;;;26.80;15.57;;;;;;;11.30;73.34;100115.25;5030983;28;20515;-50
2024/02/25 08:05:29;;;;;;;27.88;15.30;;;;;;;11.47;73.37;100110.00;5049143;28;20124;-49
2024/02/25 08:07:55;;;;;;;27.80;15.95;;;;;;;11.48;73.08;100119.56;5031031;28;20052;-46
2024/02/25 08:10:20;;;;;;;27.08;15.90;;;;;;;11.40;72.98;100114.41;5048039;28;20383;-46
2024/02/25 08:12:46;;;;;;;26.02;16.30;;;;;;;11.55;73.17;100123.91;5031318;28;20044;-45
2024/02/25 08:15:12;;;;;;;27.90;15.98;;;;;;;11.44;72.28;100113.50;5030756;28;20021;-46
2024/02/25 08:17:38;;;;;;;30.80;16.27;;;;;;;11.44;72.69;100115.25;5015036;28;20033;-46
2024/02/25 08:20:04;;;;;;;29.13;16.45;;;;;;;11.56;72.47;100123.03;5031202;28;20025;-45
2024/02/25 08:22:34;;;;;;;25.02;15.50;;;;;;;11.76;72.49;100124.78;5049319;28;20029;-48
2024/02/25 08:25:00;;;;;;;27.42;15.73;;;;;;;11.67;72.28;100119.53;5032605;28;20025;-47
2024/02/25 08:27:28;;;;;;;28.92;15.85;;;;;;;11.79;71.65;100122.13;5050135;28;20044;-46
2024/02/25 08:29:57;;;;;;;25.70;15.60;;;;;;;11.91;71.60;100117.72;5050971;28;20021;-46
2024/02/25 08:32:24;;;;;;;26.88;16.20;;;;;;;11.82;71.19;100125.63;5032960;28;20490;-45
2024/02/25 08:34:55;;;;;;;26.52;15.00;;;;;;;11.91;70.58;100117.72;5031774;28;20032;-47
2024/02/25 08:37:22;;;;;;;25.63;15.02;;;;;;;11.84;71.00;100118.63;5048989;28;20035;-47
2024/02/25 08:39:49;;;;;;;23.77;14.90;;;;;;;11.93;71.19;100127.31;5031371;28;20211;-47
2024/02/25 08:42:14;;;;;;;25.45;14.80;;;;;;;11.89;71.04;100116.88;5049993;28;20033;-46
2024/02/25 08:44:39;;;;;;;25.15;15.48;;;;;;;12.01;71.53;100127.28;5051780;28;20056;-45
2024/02/25 08:47:05;;;;;;;27.52;15.27;;;;;;;12.18;71.44;100120.22;5034293;28;20052;-46
2024/02/25 08:49:30;;;;;;;23.20;14.77;;;;;;;12.43;72.03;100115.72;5050289;28;20035;-46
2024/02/25 08:51:55;;;;;;;24.10;15.25;;;;;;;12.65;70.46;100119.94;5048730;28;20086;-44
2024/02/25 08:54:20;;;;;;;22.60;14.65;;;;;;;12.51;68.66;100120.00;5030305;28;20136;-47
2024/02/25 08:56:46;;;;;;;23.10;14.35;;;;;;;12.63;69.14;100112.97;5048780;28;20029;-48
2024/02/25 08:59:11;;;;;;;23.92;15.00;;;;;;;11.94;69.25;100118.59;5033653;28;20059;-46
2024/02/25 09:01:36;;;;;;;22.27;14.23;;;;;;;12.57;69.33;100119.97;5052180;28;20112;-47
2024/02/25 09:04:02;;;;;;;22.27;14.00;;;;;;;12.65;68.37;100121.66;5051747;28;20032;-48
2024/02/25 09:06:27;;;;;;;20.90;13.65;;;;;;;12.25;68.25;100127.16;5018076;28;20028;-47
2024/02/25 09:08:53;;;;;;;23.33;13.90;;;;;;;12.33;68.37;100125.34;5052873;28;20037;-48
2024/02/25 09:11:19;;;;;;;22.98;14.15;;;;;;;12.38;67.48;100117.50;5016319;28;20025;-46
2024/02/25 09:13:45;;;;;;;23.23;13.80;;;;;;;12.50;67.66;100126.13;5034591;28;20029;-47
2024/02/25 09:16:10;;;;;;;22.52;13.77;;;;;;;12.61;68.38;100113.00;5051837;28;20514;-46
2024/02/25 09:18:35;;;;;;;23.45;14.13;;;;;;;12.02;68.55;100121.16;5034904;28;20072;-46
2024/02/25 09:21:01;;;;;;;21.25;13.77;;;;;;;12.70;67.58;100119.88;5033340;28;20032;-51
2024/02/25 09:23:26;;;;;;;23.65;13.65;;;;;;;12.60;66.70;100113.88;5052330;28;20055;-46
2024/02/25 09:25:52;;;;;;;23.60;13.95;;;;;;;12.44;66.34;100120.09;5053000;28;20036;-46
2024/02/25 09:28:19;;;;;;;22.65;13.75;;;;;;;12.65;65.82;100116.44;5017799;28;20041;-47
2024/02/25 09:30:44;;;;;;;23.15;13.48;;;;;;;12.11;67.85;100128.97;5052122;28;20025;-46
2024/02/25 09:33:10;;;;;;;21.33;13.40;;;;;;;12.22;67.67;100118.44;5033754;28;20041;-45
2024/02/25 09:35:35;;;;;;;24.20;13.65;;;;;;;12.46;67.30;100124.41;5035519;28;20171;-50
2024/02/25 09:38:01;;;;;;;25.52;14.07;;;;;;;12.63;67.80;100131.25;5052244;28;20025;-45
2024/02/25 09:40:26;;;;;;;22.83;14.18;;;;;;;12.65;66.94;100122.53;5034345;28;20551;-46
2024/02/25 09:42:52;;;;;;;22.30;13.88;;;;;;;12.53;66.92;100117.41;5017710;28;20032;-47
2024/02/25 09:45:22;;;;;;;24.30;13.82;;;;;;;12.64;65.51;100117.31;5051589;28;20033;-46
2024/02/25 09:47:52;;;;;;;21.52;13.68;;;;;;;12.36;64.46;100117.50;5034588;28;20040;-47
2024/02/25 09:50:19;;;;;;;22.05;13.50;;;;;;;12.31;65.39;100121.91;5050626;28;20663;-46
2024/02/25 09:52:48;;;;;;;23.23;14.30;;;;;;;12.31;65.01;100121.03;5051197;28;20036;-47
2024/02/25 09:55:14;;;;;;;23.33;14.38;;;;;;;12.35;65.50;100122.75;5017017;28;20025;-47
2024/02/25 09:57:41;;;;;;;24.02;14.60;;;;;;;12.08;66.01;100116.78;5016931;28;20037;-48
2024/02/25 10:00:08;;;;;;;25.90;14.15;;;;;;;12.23;65.10;100130.66;5050707;28;20032;-50
2024/02/25 10:02:37;;;;;;;24.35;15.18;;;;;;;12.18;65.88;100128.94;5051231;28;20124;-45
2024/02/25 10:05:03;;;;;;;25.02;15.07;;;;;;;12.12;65.20;100126.34;5050806;28;20574;-49
2024/02/25 10:07:31;;;;;;;24.35;14.95;;;;;;;12.32;64.86;100128.00;5051612;28;20124;-49
2024/02/25 10:09:56;;;;;;;23.60;14.90;;;;;;;12.33;65.12;100125.34;5051004;28;20044;-46
2024/02/25 10:12:23;;;;;;;23.90;14.88;;;;;;;12.60;64.76;100119.09;5050961;28;20037;-45
2024/02/25 10:14:54;;;;;;;25.88;14.45;;;;;;;12.40;63.30;100121.84;5051771;28;20028;-46
2024/02/25 10:17:23;;;;;;;20.50;13.40;;;;;;;12.81;63.75;100118.06;5050692;28;20049;-45
2024/02/25 10:19:55;;;;;;;20.65;13.18;;;;;;;13.05;62.36;100119.63;5049853;28;20025;-45
2024/02/25 10:22:23;;;;;;;19.88;12.45;;;;;;;13.06;62.27;100122.22;5050265;28;20040;-44
2024/02/25 10:24:48;;;;;;;20.58;12.43;;;;;;;12.85;61.85;100119.78;5050809;28;20029;-49
2024/02/25 10:27:14;;;;;;;20.83;11.95;;;;;;;12.84;61.78;100120.66;5050083;28;20053;-50
2024/02/25 10:29:54;;;;;;;17.85;11.82;;;;;;;12.43;61.46;100119.22;5032762;28;20056;-50
2024/02/25 10:32:29;;;;;;;15.38;10.00;;;;;;;12.60;60.84;100122.59;5033192;28;20300;-45
2024/02/25 10:34:57;;;;;;;16.70;10.02;;;;;;;12.53;61.20;100118.28;5050332;28;20031;-45
2024/02/25 10:37:27;;;;;;;15.95;9.50;;;;;;;11.66;61.54;100125.63;5032304;28;20083;-49
2024/02/25 10:39:57;;;;;;;16.50;8.88;;;;;;;12.38;59.85;100131.41;5033360;28;20039;-47
2024/02/25 10:42:26;;;;;;;17.08;8.93;;;;;;;12.59;59.27;100133.03;5049684;28;20039;-47
2024/02/25 10:44:56;;;;;;;13.68;8.30;;;;;;;12.77;58.94;100125.06;5015809;28;20059;-47
2024/02/25 10:47:23;;;;;;;14.15;7.82;;;;;;;12.78;58.46;100128.56;5031792;28;20040;-46
2024/02/25 10:49:51;;;;;;;12.43;7.30;;;;;;;12.71;58.19;100126.84;5050361;28;20028;-48
2024/02/25 10:52:17;;;;;;;13.70;8.05;;;;;;;12.34;58.59;100124.47;5049366;28;20112;-46
2024/02/25 10:54:46;;;;;;;12.00;7.57;;;;;;;12.33;58.89;100129.72;5050622;28;20063;-46
2024/02/25 10:57:12;;;;;;;13.93;7.18;;;;;;;13.10;58.04;100130.91;5050103;28;20029;-47
2024/02/25 10:59:39;;;;;;;12.82;8.07;;;;;;;13.23;57.88;100125.59;5033492;28;20032;-44
2024/02/25 11:02:09;;;;;;;14.00;8.43;;;;;;;13.45;57.66;100128.88;5033036;28;20457;-45
2024/02/25 11:04:35;;;;;;;15.10;8.80;;;;;;;13.45;57.74;100128.00;5053444;28;20032;-46
2024/02/25 11:07:05;;;;;;;13.10;8.80;;;;;;;13.57;57.27;100131.34;5040186;28;20033;-53
2024/02/25 11:09:32;;;;;;;14.40;9.02;;;;;;;13.34;58.06;100126.38;5057180;28;20044;-47
2024/02/25 11:12:33;;;;;;;14.23;8.27;;;;;;;13.62;56.46;100128.69;5037808;28;20116;-47